createdAt,value
2022-11-10T00:00:32.612Z,3.19
2022-11-10T00:01:32.902Z,3.18
2022-11-10T00:02:33.182Z,3.18
2022-11-10T00:03:33.484Z,3.18
2022-11-10T00:04:33.799Z,3.18
2022-11-10T00:05:34.062Z,3.18
2022-11-10T00:06:34.419Z,3.18
2022-11-10T00:07:34.650Z,3.18
2022-11-10T00:08:35.001Z,2.94
2022-11-10T00:09:35.304Z,2.96
2022-11-10T00:10:35.576Z,2.96
2022-11-10T00:11:35.885Z,2.95
2022-11-10T00:12:36.176Z,2.95
2022-11-10T00:13:36.487Z,2.94
2022-11-10T00:14:36.812Z,2.94
2022-11-10T00:15:37.086Z,2.95
2022-11-10T00:16:37.371Z,2.94
2022-11-10T00:17:37.665Z,2.88
2022-11-10T00:18:37.975Z,2.88
2022-11-10T00:19:38.307Z,2.88
2022-11-10T00:20:38.564Z,2.86
2022-11-10T00:21:38.844Z,2.88
2022-11-10T00:22:39.136Z,2.88
2022-11-10T00:23:39.440Z,2.87
2022-11-10T00:24:39.747Z,2.72
2022-11-10T00:25:39.985Z,2.71
2022-11-10T00:26:40.276Z,2.66
2022-11-10T00:27:40.576Z,2.66
2022-11-10T00:28:40.866Z,2.63
2022-11-10T00:29:41.171Z,2.62
2022-11-10T00:30:46.578Z,2.64
2022-11-10T00:31:42.655Z,2.62
2022-11-10T00:32:41.976Z,2.62
2022-11-10T00:33:42.285Z,2.56
2022-11-10T00:34:42.598Z,2.56
2022-11-10T00:35:42.865Z,2.58
2022-11-10T00:36:43.155Z,2.58
2022-11-10T00:37:43.433Z,2.54
2022-11-10T00:38:43.736Z,2.57
2022-11-10T00:39:44.038Z,2.54
2022-11-10T00:40:44.306Z,2.54
2022-11-10T00:41:44.585Z,2.66
2022-11-10T00:42:44.877Z,2.66
2022-11-10T00:43:45.157Z,2.62
2022-11-10T00:44:45.488Z,2.62
2022-11-10T00:45:45.757Z,2.56
2022-11-10T00:46:46.040Z,2.55
2022-11-10T00:47:46.336Z,2.54
2022-11-10T00:48:46.626Z,2.55
2022-11-10T00:49:46.935Z,2.71
2022-11-10T00:50:47.197Z,2.70
2022-11-10T00:51:47.489Z,2.63
2022-11-10T00:52:47.774Z,2.58
2022-11-10T00:53:48.075Z,2.56
2022-11-10T00:54:48.388Z,2.54
2022-11-10T00:55:48.675Z,2.59
2022-11-10T00:56:48.989Z,2.54
2022-11-10T00:57:49.298Z,1.62
2022-11-10T00:58:49.600Z,1.58
2022-11-10T00:59:49.929Z,1.57
2022-11-10T01:00:50.259Z,1.57
2022-11-10T01:01:50.523Z,1.47
2022-11-10T01:02:50.842Z,1.43
2022-11-10T01:03:51.146Z,1.33
2022-11-10T01:04:51.437Z,1.26
2022-11-10T01:05:51.744Z,1.25
2022-11-10T01:06:52.099Z,1.25
2022-11-10T01:07:52.340Z,1.29
2022-11-10T01:08:52.630Z,1.26
2022-11-10T01:09:52.940Z,1.35
2022-11-10T01:10:53.176Z,1.32
2022-11-10T01:11:53.470Z,1.29
2022-11-10T01:12:53.780Z,1.25
2022-11-10T01:13:54.059Z,1.25
2022-11-10T01:14:54.356Z,2.12
2022-11-10T01:15:54.666Z,2.06
2022-11-10T01:16:54.957Z,2.06
2022-11-10T01:17:55.280Z,1.98
2022-11-10T01:18:55.516Z,1.98
2022-11-10T01:19:55.818Z,1.93
2022-11-10T01:20:56.097Z,1.89
2022-11-10T01:21:56.396Z,1.89
2022-11-10T01:22:56.717Z,1.89
2022-11-10T01:23:57.001Z,1.89
2022-11-10T01:24:57.328Z,2.00
2022-11-10T01:25:57.580Z,2.02
2022-11-10T01:26:57.870Z,2.02
2022-11-10T01:27:58.167Z,2.02
2022-11-10T01:28:58.448Z,2.00
2022-11-10T01:29:58.745Z,1.98
2022-11-10T01:30:59.063Z,1.98
2022-11-10T01:31:59.348Z,1.98
2022-11-10T01:32:59.671Z,1.99
2022-11-10T01:33:59.947Z,1.97
2022-11-10T01:35:00.255Z,1.93
2022-11-10T01:36:00.532Z,1.93
2022-11-10T01:37:00.830Z,1.93
2022-11-10T01:38:01.136Z,1.93
2022-11-10T01:39:01.429Z,1.89
2022-11-10T01:40:01.810Z,1.89
2022-11-10T01:41:02.058Z,1.89
2022-11-10T01:42:02.357Z,1.92
2022-11-10T01:43:02.651Z,1.92
2022-11-10T01:44:02.952Z,1.90
2022-11-10T01:45:03.281Z,1.90
2022-11-10T01:46:03.541Z,1.92
2022-11-10T01:47:03.852Z,1.93
2022-11-10T01:48:04.153Z,1.93
2022-11-10T01:49:04.472Z,1.89
2022-11-10T01:50:04.811Z,1.90
2022-11-10T01:51:05.168Z,1.89
2022-11-10T01:52:05.314Z,1.49
2022-11-10T01:53:05.621Z,1.49
2022-11-10T01:54:05.933Z,1.47
2022-11-10T01:55:06.262Z,1.46
2022-11-10T01:56:06.531Z,1.45
2022-11-10T01:57:06.834Z,1.41
2022-11-10T01:58:07.127Z,1.41
2022-11-10T01:59:07.409Z,1.41
2022-11-10T02:00:07.707Z,1.42
2022-11-10T02:01:08.055Z,1.41
2022-11-10T02:02:08.301Z,1.25
2022-11-10T02:03:08.611Z,1.25
2022-11-10T02:04:08.928Z,1.37
2022-11-10T02:05:09.273Z,1.25
2022-11-10T02:06:09.516Z,1.34
2022-11-10T02:07:09.850Z,1.33
2022-11-10T02:08:10.102Z,1.33
2022-11-10T02:09:10.399Z,1.29
2022-11-10T02:10:10.741Z,1.26
2022-11-10T02:11:10.988Z,1.26
2022-11-10T02:12:11.277Z,1.26
2022-11-10T02:13:11.559Z,1.25
2022-11-10T02:14:11.861Z,1.25
2022-11-10T02:15:12.193Z,1.60
2022-11-10T02:16:12.443Z,1.25
2022-11-10T02:17:12.729Z,1.57
2022-11-10T02:18:13.042Z,1.57
2022-11-10T02:19:13.339Z,1.57
2022-11-10T02:20:13.663Z,1.57
2022-11-10T02:21:13.931Z,1.57
2022-11-10T02:22:14.244Z,1.48
2022-11-10T02:23:14.529Z,1.48
2022-11-10T02:24:14.831Z,1.45
2022-11-10T02:25:15.135Z,1.45
2022-11-10T02:26:15.390Z,1.41
2022-11-10T02:27:15.712Z,1.43
2022-11-10T02:28:15.955Z,1.41
2022-11-10T02:29:16.252Z,1.43
2022-11-10T02:30:16.568Z,1.42
2022-11-10T02:31:16.827Z,1.41
2022-11-10T02:32:17.138Z,1.41
2022-11-10T02:33:17.428Z,1.33
2022-11-10T02:34:17.741Z,1.30
2022-11-10T02:35:18.048Z,1.26
2022-11-10T02:36:18.322Z,1.29
2022-11-10T02:37:18.647Z,1.25
2022-11-10T02:38:18.932Z,1.25
2022-11-10T02:39:19.234Z,1.35
2022-11-10T02:40:19.561Z,1.25
2022-11-10T02:41:19.829Z,1.25
2022-11-10T02:42:20.142Z,1.25
2022-11-10T02:43:20.814Z,1.25
2022-11-10T02:44:20.748Z,1.29
2022-11-10T02:45:21.038Z,1.29
2022-11-10T02:46:21.351Z,1.29
2022-11-10T02:47:21.652Z,1.25
2022-11-10T02:48:21.949Z,1.26
2022-11-10T02:49:22.240Z,1.35
2022-11-10T02:50:22.561Z,1.35
2022-11-10T02:51:22.867Z,1.33
2022-11-10T02:52:23.171Z,1.30
2022-11-10T02:53:23.749Z,1.30
2022-11-10T02:54:23.806Z,1.27
2022-11-10T02:55:24.119Z,1.27
2022-11-10T02:56:24.358Z,1.28
2022-11-10T02:57:24.659Z,1.25
2022-11-10T02:58:24.991Z,1.25
2022-11-10T02:59:25.256Z,1.25
2022-11-10T03:00:25.580Z,1.26
2022-11-10T03:01:26.056Z,1.25
2022-11-10T03:02:31.071Z,1.25
2022-11-10T03:03:27.344Z,1.25
2022-11-10T03:04:26.670Z,1.27
2022-11-10T03:05:27.002Z,1.25
2022-11-10T03:06:27.273Z,1.25
2022-11-10T03:07:27.580Z,1.40
2022-11-10T03:08:27.893Z,1.26
2022-11-10T03:09:28.207Z,1.40
2022-11-10T03:10:28.512Z,1.39
2022-11-10T03:11:32.219Z,1.37
2022-11-10T03:12:29.124Z,1.37
2022-11-10T03:13:40.293Z,1.25
2022-11-10T03:14:30.669Z,1.26
2022-11-10T03:15:30.022Z,1.27
2022-11-10T03:16:30.294Z,1.25
2022-11-10T03:17:30.613Z,1.25
2022-11-10T03:18:30.924Z,1.25
2022-11-10T03:19:31.243Z,1.25
2022-11-10T03:20:31.555Z,1.25
2022-11-10T03:21:31.834Z,1.25
2022-11-10T03:22:32.145Z,1.25
2022-11-10T03:23:32.460Z,1.25
2022-11-10T03:24:32.752Z,1.34
2022-11-10T03:25:33.074Z,1.33
2022-11-10T03:26:33.331Z,1.33
2022-11-10T03:27:33.630Z,1.33
2022-11-10T03:28:33.946Z,1.33
2022-11-10T03:29:34.240Z,1.33
2022-11-10T03:30:34.552Z,1.27
2022-11-10T03:31:34.963Z,1.33
2022-11-10T03:32:35.111Z,1.33
2022-11-10T03:33:35.425Z,1.25
2022-11-10T03:34:35.723Z,1.26
2022-11-10T03:35:36.041Z,1.33
2022-11-10T03:36:36.281Z,1.27
2022-11-10T03:37:36.580Z,1.27
2022-11-10T03:38:36.891Z,1.27
2022-11-10T03:39:37.180Z,1.33
2022-11-10T03:40:50.826Z,1.25
2022-11-10T03:41:38.739Z,1.25
2022-11-10T03:42:38.074Z,1.27
2022-11-10T03:43:38.372Z,1.27
2022-11-10T03:44:38.674Z,1.33
2022-11-10T03:45:39.003Z,1.31
2022-11-10T03:46:42.840Z,1.31
2022-11-10T03:47:39.514Z,1.31
2022-11-10T03:48:39.811Z,1.25
2022-11-10T03:49:40.125Z,1.29
2022-11-10T03:50:40.446Z,1.31
2022-11-10T03:51:40.711Z,1.31
2022-11-10T03:52:41.024Z,1.25
2022-11-10T03:53:41.410Z,1.25
2022-11-10T03:54:41.600Z,1.25
2022-11-10T03:55:41.881Z,1.26
2022-11-10T03:56:42.152Z,1.26
2022-11-10T03:57:42.464Z,1.25
2022-11-10T03:58:42.765Z,1.28
2022-11-10T03:59:43.084Z,1.26
2022-11-10T04:00:43.404Z,1.36
2022-11-10T04:01:43.720Z,1.37
2022-11-10T04:02:43.985Z,1.25
2022-11-10T04:03:48.766Z,1.36
2022-11-10T04:04:45.591Z,1.37
2022-11-10T04:05:44.944Z,1.35
2022-11-10T04:06:45.218Z,1.33
2022-11-10T04:07:45.492Z,1.35
2022-11-10T04:08:45.791Z,1.35
2022-11-10T04:09:46.107Z,1.25
2022-11-10T04:10:46.435Z,1.26
2022-11-10T04:11:46.708Z,1.26
2022-11-10T04:12:47.007Z,1.25
2022-11-10T04:13:47.300Z,1.25
2022-11-10T04:14:47.592Z,1.25
2022-11-10T04:15:47.923Z,1.25
2022-11-10T04:16:48.203Z,1.26
2022-11-10T04:17:48.493Z,1.26
2022-11-10T04:18:48.792Z,1.26
2022-11-10T04:19:49.090Z,1.26
2022-11-10T04:20:49.402Z,1.26
2022-11-10T04:21:49.705Z,1.36
2022-11-10T04:22:50.015Z,1.33
2022-11-10T04:23:50.324Z,1.34
2022-11-10T04:24:50.625Z,1.34
2022-11-10T04:25:52.865Z,1.33
2022-11-10T04:26:51.192Z,1.31
2022-11-10T04:27:51.507Z,1.33
2022-11-10T04:28:51.804Z,1.26
2022-11-10T04:29:52.140Z,1.25
2022-11-10T04:30:52.415Z,1.26
2022-11-10T04:31:52.675Z,1.26
2022-11-10T04:32:53.831Z,1.26
2022-11-10T04:33:53.288Z,1.28
2022-11-10T04:34:53.597Z,1.25
2022-11-10T04:35:53.917Z,1.25
2022-11-10T04:36:54.196Z,1.25
2022-11-10T04:37:54.497Z,1.26
2022-11-10T04:38:54.792Z,1.26
2022-11-10T04:39:55.102Z,1.25
2022-11-10T04:40:55.411Z,8.90
2022-11-10T04:42:01.277Z,8.96
2022-11-10T04:42:57.061Z,8.96
2022-11-10T04:43:56.202Z,1.25
2022-11-10T04:44:56.506Z,8.94
2022-11-10T04:45:56.837Z,8.96
2022-11-10T04:46:57.096Z,8.94
2022-11-10T04:47:57.404Z,8.96
2022-11-10T04:48:57.703Z,8.94
2022-11-10T04:49:58.007Z,8.94
2022-11-10T04:50:58.327Z,8.94
2022-11-10T04:52:05.675Z,8.93
2022-11-10T04:52:58.825Z,8.90
2022-11-10T04:54:00.842Z,8.88
2022-11-10T04:55:01.114Z,8.87
2022-11-10T04:55:59.725Z,8.86
2022-11-10T04:56:59.997Z,8.79
2022-11-10T04:58:00.297Z,8.76
2022-11-10T04:59:00.615Z,8.73
2022-11-10T05:00:00.922Z,8.72
2022-11-10T05:01:01.275Z,8.71
2022-11-10T05:02:01.416Z,8.71
2022-11-10T05:03:01.725Z,8.68
2022-11-10T05:04:02.016Z,8.65
2022-11-10T05:05:02.330Z,8.63
2022-11-10T05:06:02.656Z,8.62
2022-11-10T05:07:03.022Z,8.58
2022-11-10T05:08:03.297Z,8.55
2022-11-10T05:09:03.620Z,8.54
2022-11-10T05:10:03.884Z,8.51
2022-11-10T05:11:04.220Z,8.50
2022-11-10T05:12:04.465Z,8.48
2022-11-10T05:13:04.775Z,8.48
2022-11-10T05:14:05.075Z,8.47
2022-11-10T05:15:05.410Z,8.45
2022-11-10T05:16:05.717Z,8.48
2022-11-10T05:17:06.003Z,8.48
2022-11-10T05:18:06.310Z,8.51
2022-11-10T05:19:06.607Z,8.55
2022-11-10T05:20:06.906Z,8.57
2022-11-10T05:21:07.247Z,8.60
2022-11-10T05:22:07.516Z,8.62
2022-11-10T05:23:07.860Z,8.62
2022-11-10T05:24:08.116Z,8.63
2022-11-10T05:25:08.429Z,8.58
2022-11-10T05:26:08.746Z,8.58
2022-11-10T05:27:09.046Z,8.57
2022-11-10T05:28:09.350Z,8.54
2022-11-10T05:29:09.651Z,8.53
2022-11-10T05:30:09.980Z,8.53
2022-11-10T05:31:10.259Z,8.50
2022-11-10T05:32:10.506Z,8.45
2022-11-10T05:33:10.816Z,8.44
2022-11-10T05:34:11.130Z,8.42
2022-11-10T05:35:11.440Z,8.42
2022-11-10T05:36:11.767Z,8.37
2022-11-10T05:37:12.017Z,8.37
2022-11-10T05:38:12.330Z,8.37
2022-11-10T05:39:12.628Z,8.37
2022-11-10T05:40:12.938Z,8.36
2022-11-10T05:41:13.269Z,8.35
2022-11-10T05:42:13.559Z,8.32
2022-11-10T05:43:13.888Z,8.32
2022-11-10T05:44:14.229Z,8.30
2022-11-10T05:45:14.580Z,8.30
2022-11-10T05:46:14.876Z,8.28
2022-11-10T05:47:15.211Z,8.25
2022-11-10T05:48:15.540Z,8.25
2022-11-10T05:49:15.899Z,8.20
2022-11-10T05:50:16.179Z,8.18
2022-11-10T05:51:16.561Z,8.20
2022-11-10T05:52:16.837Z,8.20
2022-11-10T05:53:17.148Z,8.20
2022-11-10T05:54:17.518Z,8.18
2022-11-10T05:55:17.786Z,8.17
2022-11-10T05:56:18.141Z,8.15
2022-11-10T05:57:18.502Z,8.14
2022-11-10T05:58:18.772Z,8.14
2022-11-10T05:59:19.109Z,8.14
2022-11-10T06:00:19.376Z,8.14
2022-11-10T06:01:19.724Z,8.14
2022-11-10T06:02:20.022Z,8.14
2022-11-10T06:03:20.681Z,8.14
2022-11-10T06:04:20.528Z,8.15
2022-11-10T06:05:20.860Z,8.14
2022-11-10T06:06:21.242Z,8.17
2022-11-10T06:07:21.515Z,8.18
2022-11-10T06:08:21.817Z,8.18
2022-11-10T06:09:22.135Z,8.20
2022-11-10T06:10:22.437Z,8.18
2022-11-10T06:11:22.789Z,8.18
2022-11-10T06:12:23.078Z,8.20
2022-11-10T06:13:23.832Z,8.21
2022-11-10T06:14:23.670Z,8.20
2022-11-10T06:15:23.980Z,8.20
2022-11-10T06:16:24.323Z,8.18
2022-11-10T06:17:24.631Z,8.17
2022-11-10T06:18:24.888Z,8.17
2022-11-10T06:19:25.197Z,8.17
2022-11-10T06:20:25.530Z,8.17
2022-11-10T06:21:25.857Z,8.17
2022-11-10T06:22:26.186Z,8.18
2022-11-10T06:23:26.486Z,8.18
2022-11-10T06:24:26.806Z,8.20
2022-11-10T06:25:27.132Z,8.20
2022-11-10T06:26:27.475Z,8.21
2022-11-10T06:27:27.700Z,8.20
2022-11-10T06:28:28.037Z,8.18
2022-11-10T06:29:28.311Z,8.18
2022-11-10T06:30:28.631Z,8.20
2022-11-10T06:31:29.307Z,8.22
2022-11-10T06:32:29.263Z,8.26
2022-11-10T06:33:29.589Z,8.26
2022-11-10T06:34:29.907Z,8.28
2022-11-10T06:35:30.234Z,8.26
2022-11-10T06:36:30.798Z,8.30
2022-11-10T06:37:30.820Z,8.30
2022-11-10T06:38:31.126Z,8.30
2022-11-10T06:39:31.594Z,8.30
2022-11-10T06:40:31.810Z,8.32
2022-11-10T06:41:32.011Z,8.29
2022-11-10T06:42:32.309Z,8.29
2022-11-10T06:43:32.636Z,8.29
2022-11-10T06:44:32.957Z,8.32
2022-11-10T06:45:33.287Z,8.32
2022-11-10T06:46:37.060Z,8.33
2022-11-10T06:47:34.906Z,8.35
2022-11-10T06:48:34.271Z,8.36
2022-11-10T06:49:34.625Z,8.40
2022-11-10T06:50:34.952Z,8.40
2022-11-10T06:51:35.312Z,8.44
2022-11-10T06:52:35.629Z,8.48
2022-11-10T06:53:35.919Z,8.50
2022-11-10T06:54:36.376Z,8.54
2022-11-10T06:55:36.675Z,8.53
2022-11-10T06:56:36.848Z,8.54
2022-11-10T06:57:37.164Z,8.54
2022-11-10T06:58:37.388Z,8.57
2022-11-10T06:59:37.721Z,8.58
2022-11-10T07:00:38.068Z,8.62
2022-11-10T07:01:38.485Z,8.65
2022-11-10T07:02:38.671Z,8.65
2022-11-10T07:03:53.267Z,8.65
2022-11-10T07:04:40.218Z,8.68
2022-11-10T07:05:39.437Z,8.66
2022-11-10T07:06:39.847Z,8.69
2022-11-10T07:07:40.087Z,8.69
2022-11-10T07:08:40.429Z,8.69
2022-11-10T07:09:40.762Z,8.71
2022-11-10T07:10:41.093Z,8.72
2022-11-10T07:11:41.436Z,8.72
2022-11-10T07:12:41.663Z,8.71
2022-11-10T07:13:42.002Z,8.72
2022-11-10T07:14:42.337Z,8.72
2022-11-10T07:15:42.686Z,8.75
2022-11-10T07:16:42.911Z,8.75
2022-11-10T07:17:43.214Z,8.78
2022-11-10T07:18:43.546Z,8.78
2022-11-10T07:19:43.877Z,8.79
2022-11-10T07:20:44.221Z,8.81
2022-11-10T07:21:44.460Z,8.83
2022-11-10T07:22:44.762Z,8.86
2022-11-10T07:23:45.114Z,8.88
2022-11-10T07:24:45.437Z,8.88
2022-11-10T07:25:45.766Z,8.91
2022-11-10T07:26:46.118Z,8.94
2022-11-10T07:27:46.437Z,8.96
2022-11-10T07:28:46.768Z,9.01
2022-11-10T07:29:47.102Z,9.10
2022-11-10T07:30:47.429Z,9.15
2022-11-10T07:31:47.778Z,9.16
2022-11-10T07:32:48.010Z,9.23
2022-11-10T07:33:51.907Z,9.28
2022-11-10T07:34:49.510Z,9.32
2022-11-10T07:35:48.760Z,9.40
2022-11-10T07:36:49.006Z,9.45
2022-11-10T07:37:49.312Z,1.78
2022-11-10T07:38:49.551Z,1.27
2022-11-10T07:39:49.778Z,1.31
2022-11-10T07:40:49.999Z,1.93
2022-11-10T07:41:52.645Z,1.89
2022-11-10T07:42:50.700Z,2.06
2022-11-10T07:43:50.998Z,2.08
2022-11-10T07:44:51.243Z,2.15
2022-11-10T07:45:51.468Z,1.97
2022-11-10T07:46:51.736Z,2.23
2022-11-10T07:47:52.039Z,2.23
2022-11-10T07:48:52.282Z,2.30
2022-11-10T07:49:52.516Z,2.42
2022-11-10T07:50:52.742Z,2.48
2022-11-10T07:51:52.988Z,1.29
2022-11-10T07:52:53.222Z,2.54
2022-11-10T07:53:53.452Z,2.88
2022-11-10T07:54:53.685Z,2.58
2022-11-10T07:55:53.911Z,2.70
2022-11-10T07:56:54.278Z,2.70
2022-11-10T07:57:54.595Z,2.68
2022-11-10T07:58:54.821Z,3.20
2022-11-10T07:59:57.944Z,3.26
2022-11-10T08:00:55.379Z,3.30
2022-11-10T08:01:55.658Z,3.33
2022-11-10T08:02:55.830Z,3.34
2022-11-10T08:03:56.071Z,3.35
2022-11-10T08:04:56.320Z,3.28
2022-11-10T08:05:56.631Z,3.28
2022-11-10T08:06:56.955Z,3.35
2022-11-10T08:07:57.226Z,3.35
2022-11-10T08:08:57.509Z,3.20
2022-11-10T08:09:57.873Z,3.20
2022-11-10T08:10:58.100Z,3.22
2022-11-10T08:11:58.341Z,3.22
2022-11-10T08:12:58.650Z,3.28
2022-11-10T08:13:58.869Z,3.54
2022-11-10T08:14:59.229Z,3.76
2022-11-10T08:15:59.463Z,11.57
2022-11-10T08:16:59.711Z,11.56
2022-11-10T08:18:00.024Z,3.79
2022-11-10T08:19:00.385Z,3.83
2022-11-10T08:20:00.607Z,3.85
2022-11-10T08:21:00.830Z,3.86
2022-11-10T08:22:01.093Z,3.88
2022-11-10T08:23:01.397Z,3.84
2022-11-10T08:24:01.630Z,3.91
2022-11-10T08:25:01.850Z,3.92
2022-11-10T08:26:02.082Z,3.91
2022-11-10T08:27:02.351Z,3.91
2022-11-10T08:28:02.560Z,3.95
2022-11-10T08:29:02.791Z,3.99
2022-11-10T08:30:03.021Z,11.56
2022-11-10T08:31:05.661Z,11.57
2022-11-10T08:32:03.532Z,11.59
2022-11-10T08:33:03.855Z,11.56
2022-11-10T08:34:04.087Z,11.60
2022-11-10T08:35:04.312Z,11.64
2022-11-10T08:36:04.540Z,11.65
2022-11-10T08:37:04.800Z,11.57
2022-11-10T08:38:09.032Z,11.56
2022-11-10T08:39:05.452Z,11.58
2022-11-10T08:40:05.704Z,11.61
2022-11-10T08:41:06.010Z,11.62
2022-11-10T08:42:06.305Z,11.64
2022-11-10T08:43:06.504Z,11.70
2022-11-10T08:44:10.699Z,11.90
2022-11-10T08:45:07.075Z,11.90
2022-11-10T08:46:07.291Z,11.93
2022-11-10T08:47:07.564Z,12.05
2022-11-10T08:48:07.778Z,12.09
2022-11-10T08:49:07.996Z,11.56
2022-11-10T08:50:08.243Z,12.21
2022-11-10T08:51:08.479Z,12.43
2022-11-10T08:52:08.735Z,12.24
2022-11-10T08:53:09.053Z,12.53
2022-11-10T08:54:09.286Z,12.57
2022-11-10T08:55:09.525Z,11.59
2022-11-10T08:56:09.773Z,11.81
2022-11-10T08:57:10.013Z,12.86
2022-11-10T08:58:10.257Z,14.17
2022-11-10T08:59:10.561Z,15.45
2022-11-10T09:00:10.815Z,16.07
2022-11-10T09:01:11.055Z,11.76
2022-11-10T09:02:11.323Z,12.61
2022-11-10T09:03:11.622Z,13.50
2022-11-10T09:04:11.908Z,16.72
2022-11-10T09:05:12.111Z,16.83
2022-11-10T09:06:12.335Z,16.88
2022-11-10T09:07:12.652Z,17.38
2022-11-10T09:08:12.835Z,16.77
2022-11-10T09:09:13.077Z,16.76
2022-11-10T09:10:13.315Z,17.36
2022-11-10T09:11:13.535Z,16.74
2022-11-10T09:12:13.805Z,17.16
2022-11-10T09:13:14.113Z,17.75
2022-11-10T09:14:14.355Z,17.55
2022-11-10T09:15:14.598Z,17.20
2022-11-10T09:16:14.827Z,16.82
2022-11-10T09:17:15.084Z,12.65
2022-11-10T09:18:15.413Z,12.37
2022-11-10T09:19:19.870Z,11.93
2022-11-10T09:20:15.959Z,12.78
2022-11-10T09:21:16.286Z,12.53
2022-11-10T09:22:16.609Z,12.39
2022-11-10T09:23:16.926Z,12.02
2022-11-10T09:24:17.168Z,11.91
2022-11-10T09:25:17.417Z,11.90
2022-11-10T09:26:17.738Z,11.88
2022-11-10T09:27:17.984Z,11.84
2022-11-10T09:28:18.310Z,11.72
2022-11-10T09:29:18.548Z,11.58
2022-11-10T09:30:18.787Z,11.66
2022-11-10T09:31:19.028Z,11.56
2022-11-10T09:32:19.375Z,12.25
2022-11-10T09:33:19.987Z,12.14
2022-11-10T09:34:19.891Z,12.05
2022-11-10T09:35:20.113Z,11.95
2022-11-10T09:36:20.358Z,11.88
2022-11-10T09:37:20.607Z,11.88
2022-11-10T09:38:21.374Z,11.62
2022-11-10T09:39:21.200Z,11.57
2022-11-10T09:40:21.496Z,11.56
2022-11-10T09:41:21.701Z,11.84
2022-11-10T09:42:21.957Z,11.83
2022-11-10T09:43:22.678Z,11.77
2022-11-10T09:44:22.550Z,11.80
2022-11-10T09:45:22.756Z,11.77
2022-11-10T09:46:22.995Z,11.56
2022-11-10T09:47:50.391Z,11.56
2022-11-10T09:48:24.858Z,11.56
2022-11-10T09:49:23.835Z,11.73
2022-11-10T09:50:24.055Z,11.72
2022-11-10T09:51:24.305Z,11.72
2022-11-10T09:52:24.546Z,11.66
2022-11-10T09:53:24.829Z,11.64
2022-11-10T09:54:25.031Z,11.61
2022-11-10T09:55:25.278Z,11.61
2022-11-10T09:56:25.593Z,11.67
2022-11-10T09:57:25.816Z,11.66
2022-11-10T09:58:26.078Z,11.67
2022-11-10T09:59:26.410Z,11.56
2022-11-10T10:00:26.618Z,11.56
2022-11-10T10:01:26.883Z,11.62
2022-11-10T10:02:27.098Z,11.56
2022-11-10T10:03:27.349Z,11.57
2022-11-10T10:04:27.682Z,11.60
2022-11-10T10:05:27.918Z,11.57
2022-11-10T10:06:43.755Z,11.60
2022-11-10T10:07:29.474Z,11.72
2022-11-10T10:08:28.748Z,11.72
2022-11-10T10:09:29.069Z,11.74
2022-11-10T10:10:29.302Z,11.80
2022-11-10T10:11:29.550Z,11.81
2022-11-10T10:12:29.788Z,11.88
2022-11-10T10:13:30.032Z,11.88
2022-11-10T10:14:30.257Z,11.91
2022-11-10T10:15:30.499Z,11.89
2022-11-10T10:16:30.731Z,11.88
2022-11-10T10:17:30.990Z,11.93
2022-11-10T10:18:31.330Z,11.93
2022-11-10T10:19:31.544Z,11.93
2022-11-10T10:20:31.760Z,11.98
2022-11-10T10:21:32.000Z,11.56
2022-11-10T10:22:32.228Z,11.57
2022-11-10T10:24:02.270Z,11.59
2022-11-10T10:24:33.772Z,11.56
2022-11-10T10:25:33.018Z,11.56
2022-11-10T10:26:33.262Z,11.58
2022-11-10T10:27:33.512Z,11.58
2022-11-10T10:28:33.854Z,11.58
2022-11-10T10:29:37.475Z,11.72
2022-11-10T10:30:34.495Z,11.76
2022-11-10T10:31:34.729Z,11.73
2022-11-10T10:32:34.969Z,11.74
2022-11-10T10:33:35.231Z,11.74
2022-11-10T10:34:35.536Z,11.80
2022-11-10T10:35:41.505Z,11.80
2022-11-10T10:36:37.061Z,11.81
2022-11-10T10:37:36.310Z,11.81
2022-11-10T10:38:36.568Z,11.81
2022-11-10T10:39:36.872Z,11.81
2022-11-10T10:40:37.112Z,11.56
2022-11-10T10:41:37.339Z,11.56
2022-11-10T10:42:37.576Z,11.56
2022-11-10T10:43:37.832Z,11.56
2022-11-10T10:44:38.159Z,11.57
2022-11-10T10:45:38.437Z,11.60
2022-11-10T10:46:38.633Z,11.56
2022-11-10T10:47:38.884Z,11.60
2022-11-10T10:48:39.234Z,11.60
2022-11-10T10:49:39.433Z,11.62
2022-11-10T10:50:39.691Z,11.56
2022-11-10T10:51:39.991Z,11.64
2022-11-10T10:52:47.400Z,11.56
2022-11-10T10:53:42.381Z,11.57
2022-11-10T10:54:40.881Z,11.57
2022-11-10T10:55:41.212Z,11.60
2022-11-10T10:56:41.451Z,11.60
2022-11-10T10:57:41.703Z,11.61
2022-11-10T10:58:42.062Z,11.56
2022-11-10T10:59:42.362Z,11.64
2022-11-10T11:00:42.599Z,11.64
2022-11-10T11:01:43.003Z,11.64
2022-11-10T11:02:43.281Z,11.66
2022-11-10T11:03:43.532Z,11.64
2022-11-10T11:04:43.852Z,11.56
2022-11-10T11:05:44.082Z,11.64
2022-11-10T11:06:44.464Z,11.58
2022-11-10T11:07:44.755Z,11.57
2022-11-10T11:08:45.008Z,11.58
2022-11-10T11:09:45.323Z,11.58
2022-11-10T11:10:45.556Z,11.72
2022-11-10T11:11:45.763Z,11.72
2022-11-10T11:12:46.104Z,11.72
2022-11-10T11:13:46.377Z,11.74
2022-11-10T11:14:46.585Z,11.75
2022-11-10T11:15:46.913Z,11.73
2022-11-10T11:16:47.165Z,11.74
2022-11-10T11:17:47.418Z,11.72
2022-11-10T11:18:47.724Z,11.73
2022-11-10T11:19:47.956Z,11.73
2022-11-10T11:20:48.294Z,11.80
2022-11-10T11:21:48.525Z,11.88
2022-11-10T11:22:48.753Z,11.88
2022-11-10T11:23:49.127Z,11.89
2022-11-10T11:24:49.437Z,11.88
2022-11-10T11:25:49.666Z,11.88
2022-11-10T11:26:50.022Z,11.93
2022-11-10T11:27:50.303Z,12.21
2022-11-10T11:28:50.677Z,12.23
2022-11-10T11:29:50.974Z,12.25
2022-11-10T11:30:51.348Z,12.26
2022-11-10T11:31:51.653Z,12.29
2022-11-10T11:32:51.993Z,12.21
2022-11-10T11:33:52.276Z,12.21
2022-11-10T11:34:52.453Z,12.21
2022-11-10T11:35:52.785Z,12.22
2022-11-10T11:36:53.138Z,11.98
2022-11-10T11:37:53.488Z,11.94
2022-11-10T11:38:53.793Z,11.90
2022-11-10T11:39:54.017Z,11.88
2022-11-10T11:40:54.369Z,11.89
2022-11-10T11:41:54.596Z,11.93
2022-11-10T11:42:54.825Z,11.89
2022-11-10T11:43:55.197Z,11.93
2022-11-10T11:44:55.394Z,11.90
2022-11-10T11:45:55.723Z,11.93
2022-11-10T11:46:56.090Z,11.93
2022-11-10T11:47:56.309Z,11.93
2022-11-10T11:48:56.707Z,11.94
2022-11-10T11:49:56.897Z,11.94
2022-11-10T11:50:57.127Z,11.89
2022-11-10T11:51:57.366Z,11.90
2022-11-10T11:52:57.682Z,11.93
2022-11-10T11:53:58.066Z,11.94
2022-11-10T11:54:58.237Z,11.94
2022-11-10T11:55:58.465Z,11.96
2022-11-10T11:56:58.804Z,12.22
2022-11-10T11:57:59.037Z,12.21
2022-11-10T11:58:59.317Z,12.29
2022-11-10T11:59:59.616Z,12.31
2022-11-10T12:00:59.969Z,12.33
2022-11-10T12:02:00.223Z,12.21
2022-11-10T12:03:00.551Z,12.25
2022-11-10T12:04:00.766Z,12.28
2022-11-10T12:05:01.047Z,12.37
2022-11-10T12:06:01.396Z,12.40
2022-11-10T12:07:01.729Z,12.41
2022-11-10T12:08:02.060Z,12.43
2022-11-10T12:09:02.285Z,12.41
2022-11-10T12:10:02.633Z,12.43
2022-11-10T12:11:02.859Z,12.43
2022-11-10T12:12:03.197Z,12.37
2022-11-10T12:13:03.557Z,12.45
2022-11-10T12:14:03.809Z,12.45
2022-11-10T12:15:04.112Z,12.45
2022-11-10T12:16:04.349Z,12.37
2022-11-10T12:17:20.582Z,12.39
2022-11-10T12:18:05.011Z,12.45
2022-11-10T12:19:07.892Z,12.37
2022-11-10T12:20:05.512Z,12.37
2022-11-10T12:21:05.847Z,12.39
2022-11-10T12:22:06.176Z,12.39
2022-11-10T12:23:06.424Z,12.37
2022-11-10T12:24:10.175Z,12.37
2022-11-10T12:25:06.943Z,12.40
2022-11-10T12:26:07.196Z,12.45
2022-11-10T12:27:07.413Z,12.54
2022-11-10T12:28:07.676Z,12.53
2022-11-10T12:29:08.013Z,12.59
2022-11-10T12:30:15.234Z,12.55
2022-11-10T12:31:08.496Z,12.55
2022-11-10T12:32:08.742Z,12.53
2022-11-10T12:33:09.004Z,12.61
2022-11-10T12:34:09.259Z,12.59
2022-11-10T12:35:09.498Z,12.54
2022-11-10T12:36:09.751Z,12.62
2022-11-10T12:37:10.099Z,12.61
2022-11-10T12:38:10.341Z,12.61
2022-11-10T12:39:10.618Z,12.66
2022-11-10T12:40:10.896Z,12.66
2022-11-10T12:41:11.127Z,12.65
2022-11-10T12:42:11.383Z,11.56
2022-11-10T12:43:11.621Z,11.56
2022-11-10T12:44:11.888Z,11.58
2022-11-10T12:45:12.142Z,11.58
2022-11-10T12:46:12.401Z,11.60
2022-11-10T12:47:12.630Z,11.60
2022-11-10T12:48:12.974Z,11.58
2022-11-10T12:49:13.217Z,11.60
2022-11-10T12:50:13.558Z,11.64
2022-11-10T12:51:13.804Z,11.65
2022-11-10T12:52:14.034Z,11.65
2022-11-10T12:53:14.239Z,11.56
2022-11-10T12:54:16.879Z,11.57
2022-11-10T12:55:14.839Z,11.56
2022-11-10T12:56:15.169Z,11.57
2022-11-10T12:57:15.420Z,11.56
2022-11-10T12:58:15.763Z,11.56
2022-11-10T12:59:16.100Z,11.60
2022-11-10T13:00:20.258Z,11.60
2022-11-10T13:01:17.751Z,11.60
2022-11-10T13:02:16.995Z,11.60
2022-11-10T13:03:17.223Z,11.58
2022-11-10T13:04:17.460Z,11.60
2022-11-10T13:05:17.823Z,11.72
2022-11-10T13:06:18.111Z,11.72
2022-11-10T13:07:18.414Z,11.72
2022-11-10T13:08:18.646Z,11.73
2022-11-10T13:09:18.872Z,11.72
2022-11-10T13:10:19.163Z,11.73
2022-11-10T13:11:19.504Z,11.72
2022-11-10T13:12:19.745Z,11.72